| time (UTC) | temp C | wind direction | speed KPH | gust KPH | rain 1hr cm | rain 24hr cm | rain mn cm | humidity % | barometer mb |
| 20260903080003 | 20 | 190 | 8.0 | 17.7 | 0.00 | 0.10 | 0.00 | 77 | 1013.9 |
| 20260903075403 | 20 | 126 | 8.0 | 17.7 | 0.00 | 0.10 | 0.00 | 77 | 1013.7 |
| 20260903074503 | 20 | 257 | 8.0 | 17.7 | 0.00 | 0.10 | 0.00 | 78 | 1013.7 |
| 20260903073603 | 20 | 203 | 6.4 | 8.0 | 0.00 | 0.10 | 0.00 | 80 | 1013.4 |
| 20260903072703 | 20 | 13 | 6.4 | 9.7 | 0.00 | 0.13 | 0.00 | 82 | 1013.5 |
| 20260903072017 | 19 | 288 | 6.4 | 9.7 | 0.00 | 0.13 | 0.00 | 84 | 1013.4 |
| 20260903070903 | 19 | 252 | 8.0 | 16.1 | 0.00 | 0.13 | 0.00 | 90 | 1013.6 |
| 20260903070218 | 18 | 255 | 6.4 | 12.9 | 0.00 | 0.13 | 0.00 | 93 | 1013.3 |
| 20260903065403 | 18 | 196 | 4.8 | 12.9 | 0.00 | 0.13 | 0.00 | 94 | 1013.3 |
| 20260903064716 | 18 | 199 | 6.4 | 12.9 | 0.00 | 0.13 | 0.00 | 94 | 1013.2 |
| 20260903063603 | 18 | 193 | 1.6 | 4.8 | 0.00 | 0.13 | 0.00 | 93 | 1013.4 |
| 20260903062703 | 18 | 174 | 3.2 | 4.8 | 0.00 | 0.13 | 0.00 | 93 | 1013.3 |
| 20260903062017 | 18 | 184 | 4.8 | 8.0 | 0.00 | 0.13 | 0.00 | 92 | 1013.0 |
| 20260903060903 | 18 | 184 | 4.8 | 6.4 | 0.00 | 0.13 | 0.00 | 92 | 1013.0 |
| 20260903060003 | 18 | 206 | 4.8 | 8.0 | 0.00 | 0.13 | 0.00 | 92 | 1013.2 |
| 20260903055403 | 18 | 165 | 3.2 | 4.8 | 0.00 | 0.13 | 0.00 | 92 | 1013.3 |
| 20260903054503 | 18 | 140 | 4.8 | 6.4 | 0.00 | 0.13 | 0.00 | 92 | 1013.4 |
| 20260903053603 | 18 | 142 | 4.8 | 6.4 | 0.00 | 0.13 | 0.00 | 91 | 1013.2 |
| 20260903052703 | 18 | 190 | 3.2 | 9.7 | 0.00 | 0.13 | 0.00 | 91 | 1013.1 |
| 20260903051803 | 18 | 154 | 3.2 | 8.0 | 0.00 | 0.13 | 0.00 | 90 | 1013.0 |
| 20260903050903 | 18 | 249 | 3.2 | 6.4 | 0.00 | 0.13 | 0.00 | 90 | 1013.1 |
| 20260903050003 | 18 | 153 | 4.8 | 8.0 | 0.00 | 0.13 | 0.00 | 90 | 1012.7 |
| 20260903045403 | 18 | 143 | 4.8 | 9.7 | 0.00 | 0.13 | 0.00 | 91 | 1012.9 |
| 20260903044503 | 18 | 243 | 6.4 | 11.3 | 0.00 | 0.13 | 0.00 | 92 | 1012.8 |
| 20260903043603 | 18 | 258 | 4.8 | 11.3 | 0.00 | 0.13 | 0.00 | 93 | 1012.6 |
| 20260903042703 | 18 | 183 | 6.4 | 9.7 | 0.00 | 0.13 | 0.00 | 94 | 1012.6 |
| 20260903041803 | 18 | 173 | 4.8 | 8.0 | 0.00 | 0.13 | 0.00 | 95 | 1012.6 |
| 20260903040903 | 17 | 156 | 4.8 | 6.4 | 0.00 | 0.13 | 0.00 | 96 | 1012.5 |
| 20260903040003 | 17 | 190 | 3.2 | 6.4 | 0.00 | 0.13 | 0.00 | 96 | 1012.6 |
| 20260903035403 | 17 | 171 | 3.2 | 6.4 | 0.00 | 0.13 | 0.00 | 96 | 1013.1 |
| 20260903034717 | 17 | 149 | 3.2 | 6.4 | 0.00 | 0.13 | 0.00 | 96 | 1012.8 |
| 20260903033603 | 17 | 173 | 4.8 | 6.4 | 0.00 | 0.13 | 0.00 | 95 | 1012.6 |
| 20260903032703 | 17 | 176 | 6.4 | 9.7 | 0.00 | 0.13 | 0.00 | 95 | 1012.9 |
| 20260903031803 | 17 | 172 | 6.4 | 8.0 | 0.00 | 0.13 | 0.00 | 95 | 1012.7 |
| 20260903030903 | 17 | 143 | 4.8 | 6.4 | 0.00 | 0.13 | 0.00 | 95 | 1012.8 |
| 20260903030003 | 17 | 163 | 4.8 | 6.4 | 0.00 | 0.13 | 0.00 | 95 | 1012.8 |
| 20260903025403 | 17 | 172 | 4.8 | 6.4 | 0.00 | 0.13 | 0.00 | 95 | 1012.6 |
| 20260903024503 | 17 | 175 | 4.8 | 6.4 | 0.00 | 0.13 | 0.00 | 95 | 1012.7 |
| 20260903023603 | 17 | 169 | 3.2 | 6.4 | 0.00 | 0.13 | 0.00 | 95 | 1012.9 |
| 20260903022703 | 17 | 167 | 4.8 | 6.4 | 0.00 | 0.13 | 0.00 | 95 | 1012.8 |
| 20260903021803 | 17 | 195 | 8.0 | 12.9 | 0.00 | 0.13 | 0.00 | 95 | 1012.6 |
| 20260903021116 | 17 | 160 | 8.0 | 11.3 | 0.00 | 0.13 | 0.00 | 95 | 1012.9 |
| 20260903020218 | 17 | 171 | 6.4 | 8.0 | 0.00 | 0.13 | 0.00 | 95 | 1012.8 |
| 20260903015403 | 17 | 104 | 4.8 | 6.4 | 0.00 | 0.13 | 0.00 | 95 | 1012.7 |
| 20260903014503 | 17 | 182 | 6.4 | 11.3 | 0.00 | 0.13 | 0.00 | 95 | 1012.5 |
| 20260903013603 | 17 | 173 | 4.8 | 6.4 | 0.00 | 0.13 | 0.00 | 95 | 1012.9 |
| 20260903012703 | 17 | 150 | 6.4 | 9.7 | 0.00 | 0.13 | 0.00 | 95 | 1012.7 |
| 20260903012017 | 17 | 147 | 6.4 | 9.7 | 0.00 | 0.13 | 0.00 | 95 | 1012.9 |
| 20260903010903 | 17 | 156 | 3.2 | 4.8 | 0.00 | 0.13 | 0.00 | 95 | 1012.7 |
| 20260903010003 | 17 | 154 | 3.2 | 6.4 | 0.00 | 0.13 | 0.00 | 95 | 1012.8 |
| 20260903005403 | 17 | 148 | 4.8 | 9.7 | 0.00 | 0.13 | 0.00 | 95 | 1012.7 |
| 20260903004503 | 17 | 148 | 4.8 | 6.4 | 0.00 | 0.13 | 0.00 | 94 | 1012.9 |
| 20260903003818 | 17 | 157 | 6.4 | 8.0 | 0.00 | 0.13 | 0.00 | 94 | 1013.1 |
| 20260903002917 | 17 | 159 | 4.8 | 6.4 | 0.00 | 0.13 | 0.00 | 94 | 1013.0 |
| 20260903001803 | 17 | 180 | 4.8 | 6.4 | 0.00 | 0.13 | 0.00 | 94 | 1013.1 |
| 20260903000903 | 17 | 146 | 4.8 | 6.4 | 0.00 | 0.13 | 0.00 | 93 | 1012.8 |
| 20260903000003 | 17 | 162 | 3.2 | 8.0 | 0.00 | 0.13 | 0.00 | 93 | 1013.0 |
| 20260902235403 | 17 | 146 | 4.8 | 8.0 | 0.00 | 0.13 | 0.00 | 93 | 1013.1 |
| 20260902234503 | 17 | 151 | 3.2 | 4.8 | 0.00 | 0.13 | 0.00 | 93 | 1013.3 |
| 20260902233603 | 17 | 165 | 3.2 | 3.2 | 0.00 | 0.13 | 0.00 | 93 | 1013.2 |
| 20260902232703 | 17 | 170 | 3.2 | 6.4 | 0.00 | 0.13 | 0.00 | 93 | 1013.3 |
| 20260902232018 | 17 | 146 | 3.2 | 6.4 | 0.00 | 0.13 | 0.00 | 93 | 1013.1 |
| 20260902230903 | 17 | 170 | 4.8 | 6.4 | 0.00 | 0.13 | 0.00 | 93 | 1013.3 |
| 20260902230003 | 17 | 167 | 4.8 | 6.4 | 0.00 | 0.13 | 0.00 | 94 | 1012.9 |
| 20260902225403 | 17 | 162 | 3.2 | 6.4 | 0.00 | 0.13 | 0.13 | 94 | 1012.9 |
| 20260902224503 | 17 | 163 | 4.8 | 6.4 | 0.00 | 0.13 | 0.13 | 95 | 1013.1 |
| 20260902223603 | 17 | 164 | 4.8 | 6.4 | 0.00 | 0.13 | 0.13 | 95 | 1013.3 |
| 20260902222703 | 17 | 178 | 4.8 | 11.3 | 0.00 | 0.13 | 0.13 | 95 | 1013.3 |
| 20260902221803 | 17 | 165 | 4.8 | 8.0 | 0.00 | 0.13 | 0.13 | 96 | 1013.1 |
| 20260902220903 | 17 | 161 | 3.2 | 6.4 | 0.00 | 0.13 | 0.13 | 96 | 1013.7 |
| 20260902220003 | 17 | 172 | 1.6 | 4.8 | 0.00 | 0.13 | 0.13 | 96 | 1013.5 |
| 20260902215403 | 17 | 156 | 1.6 | 6.4 | 0.00 | 0.13 | 0.13 | 96 | 1013.3 |
| 20260902214717 | 17 | 154 | 3.2 | 6.4 | 0.00 | 0.13 | 0.13 | 96 | 1013.2 |
| 20260902213816 | 17 | 135 | 3.2 | 4.8 | 0.00 | 0.13 | 0.13 | 96 | 1013.5 |
| 20260902212703 | 17 | 109 | 4.8 | 6.4 | 0.00 | 0.13 | 0.13 | 96 | 1013.2 |
| 20260902211803 | 17 | 133 | 3.2 | 6.4 | 0.00 | 0.13 | 0.13 | 96 | 1013.0 |
| 20260902210903 | 17 | 177 | 4.8 | 6.4 | 0.00 | 0.13 | 0.13 | 96 | 1013.1 |
| 20260902210003 | 17 | 167 | 6.4 | 8.0 | 0.00 | 0.13 | 0.13 | 95 | 1013.0 |
| 20260902205403 | 17 | 165 | 6.4 | 8.0 | 0.00 | 0.13 | 0.13 | 95 | 1013.1 |
| 20260902204503 | 17 | 160 | 4.8 | 6.4 | 0.00 | 0.13 | 0.13 | 95 | 1012.8 |
| 20260902203603 | 17 | 175 | 4.8 | 6.4 | 0.00 | 0.13 | 0.13 | 94 | 1013.3 |
| 20260902202703 | 17 | 145 | 4.8 | 8.0 | 0.00 | 0.13 | 0.13 | 94 | 1013.0 |
| 20260902201803 | 17 | 155 | 4.8 | 6.4 | 0.00 | 0.13 | 0.13 | 94 | 1013.1 |
| 20260902201118 | 17 | 157 | 4.8 | 8.0 | 0.00 | 0.13 | 0.13 | 94 | 1013.0 |
| 20260902200003 | 17 | 170 | 4.8 | 9.7 | 0.00 | 0.13 | 0.13 | 93 | 1013.0 |
| 20260902195403 | 17 | 188 | 6.4 | 8.0 | 0.00 | 0.13 | 0.13 | 93 | 1012.9 |
| 20260902194503 | 17 | 207 | 4.8 | 6.4 | 0.00 | 0.13 | 0.13 | 93 | 1012.8 |
| 20260902193818 | 17 | 233 | 6.4 | 8.0 | 0.00 | 0.13 | 0.13 | 92 | 1012.8 |
| 20260902192703 | 18 | 179 | 8.0 | 12.9 | 0.00 | 0.13 | 0.13 | 92 | 1012.6 |
| 20260902192016 | 18 | 190 | 8.0 | 11.3 | 0.00 | 0.13 | 0.13 | 91 | 1012.5 |
| 20260902191118 | 18 | 159 | 9.7 | 12.9 | 0.00 | 0.13 | 0.13 | 90 | 1012.5 |
| 20260902190003 | 18 | 183 | 9.7 | 12.9 | 0.00 | 0.13 | 0.13 | 90 | 1012.4 |
| 20260902185403 | 18 | 176 | 8.0 | 12.9 | 0.00 | 0.13 | 0.13 | 90 | 1012.3 |
| 20260902184503 | 18 | 165 | 8.0 | 12.9 | 0.00 | 0.13 | 0.13 | 89 | 1012.5 |
| 20260902183603 | 18 | 172 | 9.7 | 14.5 | 0.00 | 0.13 | 0.13 | 89 | 1012.4 |
| 20260902182703 | 19 | 180 | 8.0 | 11.3 | 0.00 | 0.13 | 0.13 | 88 | 1012.3 |
| 20260902182016 | 19 | 192 | 9.7 | 12.9 | 0.00 | 0.13 | 0.13 | 88 | 1012.3 |
| 20260902180903 | 19 | 144 | 8.0 | 11.3 | 0.00 | 0.13 | 0.13 | 89 | 1012.3 |
| 20260902180006 | 19 | 183 | 4.8 | 11.3 | 0.00 | 0.13 | 0.13 | 91 | 1012.2 |
| 20260902175403 | 19 | 143 | 3.2 | 6.4 | 0.00 | 0.13 | 0.13 | 91 | 1012.3 |
| 20260902174503 | 19 | 151 | 4.8 | 6.4 | 0.00 | 0.13 | 0.13 | 91 | 1012.1 |
| 20260902173603 | 19 | 214 | 6.4 | 9.7 | 0.00 | 0.13 | 0.13 | 91 | 1012.2 |
| 20260902172703 | 19 | 180 | 8.0 | 12.9 | 0.00 | 0.13 | 0.13 | 91 | 1012.2 |
| 20260902171803 | 19 | 174 | 8.0 | 16.1 | 0.00 | 0.13 | 0.13 | 92 | 1012.2 |
| 20260902170903 | 19 | 183 | 9.7 | 16.1 | 0.00 | 0.13 | 0.13 | 92 | 1012.0 |
| 20260902170003 | 19 | 184 | 9.7 | 14.5 | 0.00 | 0.13 | 0.13 | 92 | 1012.1 |
| 20260902165403 | 19 | 195 | 9.7 | 14.5 | 0.00 | 0.13 | 0.13 | 93 | 1012.3 |
| 20260902164717 | 19 | 197 | 9.7 | 14.5 | 0.00 | 0.13 | 0.13 | 93 | 1012.2 |
| 20260902163603 | 19 | 203 | 9.7 | 12.9 | 0.00 | 0.13 | 0.13 | 93 | 1012.0 |
| 20260902162918 | 19 | 186 | 11.3 | 17.7 | 0.00 | 0.13 | 0.13 | 93 | 1012.1 |
| 20260902161803 | 19 | 180 | 12.9 | 17.7 | 0.00 | 0.13 | 0.13 | 93 | 1012.1 |
| 20260902160903 | 19 | 155 | 14.5 | 20.9 | 0.00 | 0.13 | 0.13 | 95 | 1011.8 |
| 20260902160218 | 19 | 168 | 14.5 | 17.7 | 0.00 | 0.13 | 0.13 | 96 | 1012.1 |
| 20260902155618 | 19 | 192 | 14.5 | 17.7 | 0.00 | 0.13 | 0.13 | 97 | 1011.7 |
| 20260902154717 | 18 | 201 | 14.5 | 17.7 | 0.00 | 0.13 | 0.13 | 100 | 1011.8 |
| 20260902153603 | 18 | 178 | 11.3 | 14.5 | 0.00 | 0.13 | 0.13 | 100 | 1012.0 |
| 20260902152703 | 18 | 137 | 12.9 | 17.7 | 0.00 | 0.13 | 0.13 | 100 | 1012.4 |
| 20260902151803 | 18 | 195 | 12.9 | 17.7 | 0.00 | 0.13 | 0.13 | 100 | 1012.4 |
| 20260902150903 | 18 | 208 | 12.9 | 17.7 | 0.00 | 0.13 | 0.13 | 100 | 1012.4 |
| 20260902150003 | 18 | 205 | 14.5 | 22.5 | 0.00 | 0.13 | 0.13 | 100 | 1012.1 |
| 20260902145617 | 18 | 199 | 14.5 | 22.5 | 0.00 | 0.13 | 0.13 | 100 | 1012.2 |
| 20260902144503 | 17 | 192 | 11.3 | 16.1 | 0.00 | 0.13 | 0.13 | 100 | 1012.4 |
| 20260902143603 | 17 | 185 | 12.9 | 17.7 | 0.00 | 0.13 | 0.13 | 100 | 1012.3 |
| 20260902142705 | 17 | 200 | 14.5 | 17.7 | 0.00 | 0.13 | 0.13 | 100 | 1012.3 |
| 20260902141803 | 17 | 215 | 12.9 | 17.7 | 0.00 | 0.13 | 0.13 | 100 | 1012.5 |
| 20260902141118 | 18 | 213 | 12.9 | 22.5 | 0.00 | 0.13 | 0.13 | 100 | 1012.5 |
| 20260902140003 | 18 | 197 | 12.9 | 19.3 | 0.00 | 0.13 | 0.13 | 100 | 1012.2 |
| 20260902135403 | 18 | 208 | 14.5 | 19.3 | 0.00 | 0.13 | 0.13 | 100 | 1012.6 |
| 20260902134503 | 18 | 154 | 12.9 | 24.1 | 0.00 | 0.13 | 0.13 | 100 | 1012.3 |
| 20260902133817 | 18 | 177 | 11.3 | 24.1 | 0.00 | 0.13 | 0.13 | 100 | 1012.7 |
| 20260902132703 | 17 | 168 | 12.9 | 16.1 | 0.00 | 0.13 | 0.13 | 97 | 1012.9 |
| 20260902131803 | 17 | 214 | 11.3 | 17.7 | 0.00 | 0.13 | 0.13 | 97 | 1012.6 |
| 20260902130903 | 17 | 170 | 14.5 | 20.9 | 0.00 | 0.13 | 0.13 | 96 | 1012.8 |
| 20260902130003 | 17 | 189 | 14.5 | 19.3 | 0.00 | 0.13 | 0.13 | 96 | 1012.8 |
| 20260902125403 | 17 | 200 | 12.9 | 17.7 | 0.03 | 0.13 | 0.13 | 96 | 1012.8 |
| 20260902124503 | 17 | 188 | 20.9 | 32.2 | 0.03 | 0.13 | 0.13 | 96 | 1012.8 |
| 20260902123603 | 17 | 199 | 14.5 | 22.5 | 0.05 | 0.13 | 0.13 | 96 | 1012.8 |
| 20260902122703 | 17 | 200 | 19.3 | 25.7 | 0.05 | 0.13 | 0.13 | 95 | 1013.0 |
| 20260902122018 | 17 | 208 | 16.1 | 25.7 | 0.05 | 0.13 | 0.13 | 95 | 1012.8 |
| 20260902120903 | 17 | 198 | 14.5 | 20.9 | 0.05 | 0.13 | 0.13 | 95 | 1012.7 |
| 20260902120216 | 17 | 193 | 12.9 | 20.9 | 0.05 | 0.13 | 0.13 | 97 | 1012.9 |
| 20260902115403 | 17 | 204 | 14.5 | 19.3 | 0.03 | 0.10 | 0.10 | 96 | 1013.3 |
| 20260902114503 | 17 | 204 | 14.5 | 22.5 | 0.03 | 0.10 | 0.10 | 95 | 1013.3 |
| 20260902113603 | 17 | 181 | 16.1 | 22.5 | 0.00 | 0.05 | 0.05 | 94 | 1013.4 |
| 20260902112703 | 17 | 179 | 14.5 | 24.1 | 0.00 | 0.05 | 0.05 | 94 | 1013.4 |
| 20260902111803 | 17 | 167 | 14.5 | 22.5 | 0.00 | 0.05 | 0.05 | 93 | 1013.5 |
| 20260902110903 | 17 | 189 | 16.1 | 22.5 | 0.00 | 0.05 | 0.05 | 92 | 1013.6 |
| 20260902110004 | 17 | 202 | 17.7 | 24.1 | 0.00 | 2.54 | 0.05 | 90 | 1013.7 |
| 20260902105618 | 17 | 171 | 17.7 | 22.5 | 0.00 | 5.03 | 0.05 | 89 | 1013.6 |
| 20260902104503 | 17 | 182 | 17.7 | 24.1 | 0.00 | 5.03 | 0.05 | 82 | 1013.8 |
| 20260902103603 | 18 | 213 | 20.9 | 33.8 | 0.00 | 5.03 | 0.05 | 81 | 1013.7 |
| 20260902102703 | 18 | 214 | 19.3 | 24.1 | 0.00 | 5.03 | 0.05 | 81 | 1013.4 |
| 20260902101803 | 18 | 196 | 17.7 | 27.4 | 0.00 | 5.03 | 0.05 | 82 | 1013.5 |
| 20260902101116 | 18 | 183 | 19.3 | 27.4 | 0.00 | 5.03 | 0.05 | 83 | 1013.7 |
| 20260902100003 | 18 | 190 | 16.1 | 24.1 | 0.00 | 5.03 | 0.05 | 84 | 1013.5 |
| 20260902095403 | 18 | 201 | 16.1 | 22.5 | 0.00 | 5.03 | 0.05 | 85 | 1013.4 |
| 20260902094503 | 17 | 179 | 17.7 | 27.4 | 0.00 | 5.03 | 0.05 | 84 | 1014.0 |
| 20260902093603 | 17 | 178 | 16.1 | 27.4 | 0.00 | 5.03 | 0.05 | 84 | 1014.1 |
| 20260902092703 | 17 | 208 | 14.5 | 19.3 | 0.00 | 5.03 | 0.05 | 84 | 1013.7 |
| 20260902091803 | 17 | 199 | 12.9 | 17.7 | 0.00 | 5.03 | 0.05 | 89 | 1013.7 |
| 20260902090903 | 17 | 172 | 12.9 | 19.3 | 0.00 | 5.03 | 0.05 | 91 | 1014.0 |
| 20260902090003 | 17 | 209 | 12.9 | 19.3 | 0.03 | 5.03 | 0.05 | 92 | 1014.1 |
| 20260902085403 | 17 | 130 | 11.3 | 17.7 | 0.03 | 5.03 | 0.05 | 93 | 1013.9 |
| 20260902084503 | 17 | 162 | 12.9 | 16.1 | 0.03 | 5.03 | 0.05 | 93 | 1013.9 |
| 20260902083603 | 16 | 230 | 9.7 | 19.3 | 0.03 | 5.03 | 0.05 | 93 | 1013.9 |
| 20260902082917 | 16 | 171 | 12.9 | 19.3 | 0.05 | 5.03 | 0.05 | 92 | 1014.0 |
| 20260902081803 | 16 | 220 | 12.9 | 17.7 | 0.05 | 5.03 | 0.05 | 92 | 1014.0 |
| 20260902080903 | 16 | 194 | 11.3 | 17.7 | 0.05 | 5.03 | 0.05 | 93 | 1014.0 |
| 20260902080217 | 16 | 218 | 12.9 | 17.7 | 0.03 | 5.00 | 0.03 | 94 | 1013.6 |